createdAt,value
2022-08-05T00:00:20.332Z,27.70
2022-08-05T00:02:52.407Z,27.70
2022-08-05T00:06:03.226Z,27.60
2022-08-05T00:08:32.933Z,27.60
2022-08-05T00:11:00.416Z,27.50
2022-08-05T00:13:39.175Z,27.70
2022-08-05T00:16:15.537Z,27.40
2022-08-05T00:18:48.138Z,27.40
2022-08-05T00:21:17.833Z,27.60
2022-08-05T00:24:05.112Z,27.30
2022-08-05T00:26:34.553Z,27.30
2022-08-05T00:29:02.169Z,27.20
2022-08-05T00:31:53.273Z,27.10
2022-08-05T00:34:54.017Z,27.10
2022-08-05T00:37:10.761Z,27.20
2022-08-05T00:39:44.129Z,27.00
2022-08-05T00:42:11.756Z,27.00
2022-08-05T00:44:59.464Z,27.00
2022-08-05T00:47:26.608Z,27.00
2022-08-05T00:50:13.707Z,26.90
2022-08-05T00:52:42.126Z,26.90
2022-08-05T00:55:12.718Z,26.90
2022-08-05T00:57:58.338Z,26.90
2022-08-05T01:00:30.767Z,26.90
2022-08-05T01:02:59.776Z,26.80
2022-08-05T01:05:27.919Z,26.70
2022-08-05T01:08:29.919Z,26.70
2022-08-05T01:10:56.656Z,26.50
2022-08-05T01:13:58.611Z,26.60
2022-08-05T01:16:49.733Z,26.60
2022-08-05T01:19:56.002Z,26.60
2022-08-05T01:23:15.265Z,26.50
2022-08-05T01:26:21.897Z,26.50
2022-08-05T01:29:05.322Z,26.50
2022-08-05T01:32:05.167Z,26.40
2022-08-05T01:34:48.441Z,26.10
2022-08-05T01:37:44.392Z,26.30
2022-08-05T01:40:12.821Z,26.40
2022-08-05T01:42:42.914Z,26.30
2022-08-05T01:45:10.869Z,26.30
2022-08-05T01:47:43.369Z,26.30
2022-08-05T01:50:28.834Z,26.20
2022-08-05T01:53:04.093Z,26.20
2022-08-05T01:55:36.220Z,26.10
2022-08-05T01:58:11.342Z,26.10
2022-08-05T02:00:58.014Z,26.10
2022-08-05T02:03:34.084Z,26.10
2022-08-05T02:06:23.945Z,26.00
2022-08-05T02:08:57.784Z,26.00
2022-08-05T02:11:32.768Z,25.90
2022-08-05T02:14:14.557Z,25.90
2022-08-05T02:16:53.338Z,25.90
2022-08-05T02:19:41.365Z,25.80
2022-08-05T02:22:36.865Z,25.80
2022-08-05T02:25:14.523Z,25.80
2022-08-05T02:27:58.431Z,25.80
2022-08-05T02:30:34.493Z,25.50
2022-08-05T02:33:03.764Z,25.70
2022-08-05T02:35:37.685Z,25.60
2022-08-05T02:38:19.337Z,25.60
2022-08-05T02:40:47.485Z,25.50
2022-08-05T02:43:16.857Z,25.50
2022-08-05T02:45:51.867Z,25.40
2022-08-05T02:48:29.496Z,25.50
2022-08-05T02:51:02.511Z,25.40
2022-08-05T02:53:39.640Z,25.40
2022-08-05T02:56:16.065Z,25.40
2022-08-05T02:58:51.272Z,25.30
2022-08-05T03:01:25.508Z,25.30
2022-08-05T03:04:03.360Z,25.30
2022-08-05T03:06:53.763Z,25.30
2022-08-05T03:09:27.066Z,25.50
2022-08-05T03:12:05.417Z,25.20
2022-08-05T03:14:33.105Z,25.20
2022-08-05T03:17:00.608Z,25.40
2022-08-05T03:19:31.528Z,25.30
2022-08-05T03:22:01.422Z,25.20
2022-08-05T03:24:30.831Z,25.20
2022-08-05T03:27:01.646Z,25.20
2022-08-05T03:29:45.565Z,25.20
2022-08-05T03:32:15.950Z,25.10
2022-08-05T03:34:50.619Z,25.20
2022-08-05T03:37:20.678Z,25.20
2022-08-05T03:40:01.165Z,25.20
2022-08-05T03:42:32.288Z,25.20
2022-08-05T03:45:01.849Z,25.20
2022-08-05T03:47:51.555Z,25.20
2022-08-05T03:50:20.287Z,24.90
2022-08-05T03:55:54.021Z,25.20
2022-08-05T03:56:27.815Z,25.20
2022-08-05T03:59:04.500Z,25.20
2022-08-05T04:01:41.298Z,25.30
2022-08-05T04:04:16.856Z,25.20
2022-08-05T04:06:51.155Z,25.20
2022-08-05T04:09:20.359Z,25.20
2022-08-05T04:11:53.716Z,25.20
2022-08-05T04:14:29.745Z,25.20
2022-08-05T04:17:00.016Z,25.20
2022-08-05T04:19:29.271Z,25.20
2022-08-05T04:22:09.390Z,25.20
2022-08-05T04:24:44.546Z,25.20
2022-08-05T04:27:19.640Z,25.20
2022-08-05T04:30:08.808Z,25.30
2022-08-05T04:32:36.484Z,25.40
2022-08-05T04:35:05.233Z,25.40
2022-08-05T04:38:01.602Z,25.40
2022-08-05T04:40:20.973Z,25.40
2022-08-05T04:42:47.865Z,25.50
2022-08-05T04:45:31.092Z,25.50
2022-08-05T04:48:18.609Z,25.60
2022-08-05T04:51:03.304Z,25.70
2022-08-05T04:53:38.819Z,25.90
2022-08-05T04:56:32.659Z,25.90
2022-08-05T04:58:57.133Z,25.80
2022-08-05T05:02:05.482Z,26.10
2022-08-05T05:04:11.933Z,26.20
2022-08-05T05:06:44.753Z,26.30
2022-08-05T05:09:17.627Z,26.40
2022-08-05T05:11:54.180Z,26.40
2022-08-05T05:14:31.469Z,26.60
2022-08-05T05:17:03.314Z,26.70
2022-08-05T05:19:36.555Z,26.80
2022-08-05T05:22:23.739Z,27.00
2022-08-05T05:24:59.797Z,27.40
2022-08-05T05:27:44.479Z,27.20
2022-08-05T05:30:29.394Z,27.40
2022-08-05T05:33:00.522Z,27.50
2022-08-05T05:35:31.634Z,27.60
2022-08-05T05:38:09.502Z,27.70
2022-08-05T05:40:43.857Z,27.80
2022-08-05T05:43:28.128Z,27.80
2022-08-05T05:46:05.134Z,28.00
2022-08-05T05:48:34.725Z,28.00
2022-08-05T05:51:05.068Z,27.80
2022-08-05T05:53:54.206Z,28.20
2022-08-05T05:56:32.708Z,28.30
2022-08-05T05:59:10.247Z,28.40
2022-08-05T06:01:57.242Z,28.50
2022-08-05T06:04:25.104Z,28.60
2022-08-05T06:06:52.257Z,28.70
2022-08-05T06:09:25.899Z,28.80
2022-08-05T06:12:04.172Z,28.90
2022-08-05T06:14:31.770Z,29.00
2022-08-05T06:17:01.918Z,28.90
2022-08-05T06:19:57.174Z,29.10
2022-08-05T06:22:34.033Z,29.20
2022-08-05T06:25:25.012Z,29.20
2022-08-05T06:28:12.210Z,29.30
2022-08-05T06:30:37.059Z,29.40
2022-08-05T06:33:04.137Z,29.40
2022-08-05T06:36:05.717Z,29.50
2022-08-05T06:38:18.548Z,29.60
2022-08-05T06:41:07.696Z,29.60
2022-08-05T06:43:59.047Z,29.70
2022-08-05T06:46:30.019Z,29.70
2022-08-05T06:49:00.815Z,29.80
2022-08-05T06:51:30.957Z,29.80
2022-08-05T06:54:00.037Z,29.90
2022-08-05T06:56:28.671Z,29.90
2022-08-05T06:58:55.913Z,30.00
2022-08-05T07:01:23.590Z,30.20
2022-08-05T07:03:54.888Z,30.30
2022-08-05T07:06:23.177Z,30.50
2022-08-05T07:08:52.076Z,30.70
2022-08-05T07:11:25.428Z,30.90
2022-08-05T07:14:20.045Z,31.10
2022-08-05T07:18:08.483Z,31.30
2022-08-05T07:22:28.858Z,31.80
2022-08-05T07:25:24.116Z,32.00
2022-08-05T07:27:57.792Z,32.20
2022-08-05T07:30:38.385Z,32.40
2022-08-05T07:33:10.609Z,32.60
2022-08-05T07:36:04.135Z,32.80
2022-08-05T07:38:33.561Z,32.90
2022-08-05T07:41:35.007Z,33.00
2022-08-05T07:43:57.463Z,33.10
2022-08-05T07:52:12.205Z,33.30
2022-08-05T07:54:41.411Z,33.30
2022-08-05T07:57:41.910Z,33.30
2022-08-05T08:00:11.534Z,33.30
2022-08-05T08:03:15.109Z,33.30
2022-08-05T08:05:28.994Z,33.00
2022-08-05T08:07:59.922Z,33.40
2022-08-05T08:10:28.496Z,33.40
2022-08-05T08:12:58.621Z,33.30
2022-08-05T08:15:37.096Z,33.30
2022-08-05T08:18:14.111Z,33.20
2022-08-05T08:21:02.200Z,33.20
2022-08-05T08:26:26.962Z,33.00
2022-08-05T08:28:59.729Z,32.90
2022-08-05T08:31:45.490Z,32.80
2022-08-05T08:34:13.353Z,32.80
2022-08-05T08:36:47.687Z,32.80
2022-08-05T08:42:34.584Z,32.80
2022-08-05T08:45:22.939Z,32.80
2022-08-05T08:48:36.131Z,32.80
2022-08-05T08:51:54.548Z,32.70
2022-08-05T08:53:52.019Z,32.60
2022-08-05T08:56:20.935Z,32.50
2022-08-05T08:58:50.567Z,32.40
2022-08-05T09:01:19.810Z,32.20
2022-08-05T09:03:57.275Z,32.10
2022-08-05T09:06:31.733Z,32.00
2022-08-05T09:09:01.265Z,32.20
2022-08-05T09:11:51.955Z,31.90
2022-08-05T09:14:58.425Z,31.70
2022-08-05T09:17:16.089Z,31.70
2022-08-05T09:20:02.913Z,31.70
2022-08-05T09:23:09.485Z,31.50
2022-08-05T09:26:02.612Z,31.50
2022-08-05T09:28:32.173Z,31.40
2022-08-05T09:31:23.511Z,31.40
2022-08-05T09:33:59.537Z,31.40
2022-08-05T09:36:56.295Z,31.40
2022-08-05T09:39:41.485Z,31.50
2022-08-05T09:42:23.152Z,31.50
2022-08-05T09:44:56.075Z,31.60
2022-08-05T09:47:29.680Z,31.50
2022-08-05T09:50:18.011Z,31.40
2022-08-05T09:53:01.741Z,31.40
2022-08-05T09:55:57.427Z,31.40
2022-08-05T10:01:22.467Z,31.40
2022-08-05T10:04:10.314Z,31.20
2022-08-05T10:06:54.873Z,31.20
2022-08-05T10:09:29.678Z,31.20
2022-08-05T10:12:18.499Z,31.10
2022-08-05T10:15:20.963Z,31.00
2022-08-05T10:18:09.837Z,30.90
2022-08-05T10:20:47.586Z,30.90
2022-08-05T10:23:34.630Z,30.80
2022-08-05T10:26:13.982Z,30.70
2022-08-05T10:29:00.223Z,30.60
2022-08-05T10:32:54.149Z,30.50
2022-08-05T10:34:17.020Z,30.50
2022-08-05T10:37:12.743Z,30.50
2022-08-05T10:40:18.045Z,30.60
2022-08-05T10:42:51.126Z,30.70
2022-08-05T10:45:39.765Z,30.70
2022-08-05T10:48:38.378Z,30.70
2022-08-05T10:51:23.086Z,30.80
2022-08-05T10:53:58.472Z,30.70
2022-08-05T10:56:49.347Z,30.80
2022-08-05T11:00:02.400Z,30.60
2022-08-05T11:02:37.485Z,30.50
2022-08-05T11:05:11.156Z,30.30
2022-08-05T11:08:33.688Z,30.10
2022-08-05T11:11:00.935Z,30.10
2022-08-05T11:13:58.134Z,30.00
2022-08-05T11:16:47.548Z,29.90
2022-08-05T11:20:10.613Z,29.90
2022-08-05T11:22:42.938Z,29.90
2022-08-05T11:26:04.312Z,30.00
2022-08-05T11:28:25.436Z,30.40
2022-08-05T11:31:06.565Z,31.20
2022-08-05T11:33:48.187Z,32.10
2022-08-05T11:36:34.654Z,33.20
2022-08-05T11:39:09.502Z,34.20
2022-08-05T11:42:01.615Z,35.50
2022-08-05T11:44:40.391Z,36.70
2022-08-05T11:47:10.489Z,37.90
2022-08-05T11:49:42.933Z,38.70
2022-08-05T11:52:11.494Z,39.10
2022-08-05T11:54:41.419Z,39.40
2022-08-05T11:57:39.427Z,39.70
2022-08-05T11:59:56.675Z,40.00
2022-08-05T12:02:32.339Z,40.50
2022-08-05T12:05:06.900Z,40.80
2022-08-05T12:08:08.553Z,41.10
2022-08-05T12:10:39.076Z,41.60
2022-08-05T12:13:27.959Z,42.10
2022-08-05T12:16:14.435Z,42.70
2022-08-05T12:18:42.786Z,43.40
2022-08-05T12:21:33.878Z,43.80
2022-08-05T12:24:14.025Z,44.20
2022-08-05T12:26:52.708Z,44.40
2022-08-05T12:29:25.764Z,44.60
2022-08-05T12:31:57.866Z,44.80
2022-08-05T12:34:37.970Z,45.00
2022-08-05T12:37:21.620Z,45.20
2022-08-05T12:40:03.010Z,45.40
2022-08-05T12:42:31.736Z,45.90
2022-08-05T12:45:09.565Z,46.40
2022-08-05T12:47:37.703Z,46.90
2022-08-05T12:50:19.792Z,47.40
2022-08-05T12:52:59.651Z,48.00
2022-08-05T12:55:32.970Z,48.50
2022-08-05T12:58:49.881Z,48.80
2022-08-05T13:02:03.203Z,49.10
2022-08-05T13:03:41.985Z,49.40
2022-08-05T13:06:17.770Z,49.60
2022-08-05T13:08:51.965Z,49.80
2022-08-05T13:11:59.787Z,49.90
2022-08-05T13:14:24.553Z,49.70
2022-08-05T13:17:02.918Z,49.20
2022-08-05T13:19:40.443Z,48.70
2022-08-05T13:22:28.380Z,48.00
2022-08-05T13:25:00.896Z,47.20
2022-08-05T13:27:42.758Z,46.60
2022-08-05T13:30:32.969Z,45.80
2022-08-05T13:33:01.155Z,45.20
2022-08-05T13:35:42.391Z,44.60
2022-08-05T13:38:28.338Z,44.10
2022-08-05T13:41:01.606Z,43.60
2022-08-05T13:43:45.723Z,43.50
2022-08-05T13:46:35.845Z,43.30
2022-08-05T13:49:04.853Z,43.20
2022-08-05T13:51:40.960Z,43.10
2022-08-05T13:54:12.605Z,43.00
2022-08-05T13:56:44.992Z,43.00
2022-08-05T13:59:24.943Z,43.00
2022-08-05T14:02:00.710Z,43.00
2022-08-05T14:04:50.791Z,42.80
2022-08-05T14:07:26.337Z,42.50
2022-08-05T14:10:18.641Z,42.20
2022-08-05T14:12:48.855Z,41.80
2022-08-05T14:16:07.235Z,41.50
2022-08-05T14:18:05.641Z,41.20
2022-08-05T14:20:32.629Z,40.90
2022-08-05T14:23:00.085Z,40.60
2022-08-05T14:25:30.033Z,40.30
2022-08-05T14:27:58.423Z,40.10
2022-08-05T14:30:27.735Z,39.90
2022-08-05T14:33:22.825Z,39.70
2022-08-05T14:35:52.058Z,39.60
2022-08-05T14:41:11.114Z,39.30
2022-08-05T14:44:02.339Z,39.00
2022-08-05T14:46:30.597Z,38.60
2022-08-05T14:49:06.249Z,38.30
2022-08-05T14:51:38.174Z,37.90
2022-08-05T14:54:28.990Z,37.50
2022-08-05T14:56:57.483Z,37.30
2022-08-05T14:59:24.929Z,37.00
2022-08-05T15:01:56.335Z,36.90
2022-08-05T15:04:24.140Z,36.80
2022-08-05T15:06:54.683Z,36.70
2022-08-05T15:09:51.681Z,36.60
2022-08-05T15:12:11.789Z,36.40
2022-08-05T15:15:10.786Z,36.20
2022-08-05T15:17:46.470Z,36.00
2022-08-05T15:20:24.580Z,35.80
2022-08-05T15:22:54.930Z,35.60
2022-08-05T15:25:51.331Z,35.40
2022-08-05T15:28:13.395Z,35.20
2022-08-05T15:30:46.799Z,34.90
2022-08-05T15:34:05.979Z,34.70
2022-08-05T15:36:16.637Z,34.40
2022-08-05T15:41:03.808Z,34.20
2022-08-05T15:41:58.887Z,33.90
2022-08-05T15:44:30.323Z,33.70
2022-08-05T15:47:01.455Z,33.40
2022-08-05T15:49:53.528Z,33.30
2022-08-05T15:52:51.906Z,33.10
2022-08-05T15:55:05.990Z,32.90
2022-08-05T15:57:35.011Z,32.70
2022-08-05T16:00:05.255Z,32.50
2022-08-05T16:02:32.954Z,32.30
2022-08-05T16:05:03.723Z,32.20
2022-08-05T16:07:33.066Z,32.10
2022-08-05T16:10:00.210Z,32.00
2022-08-05T16:12:27.187Z,31.90
2022-08-05T16:14:54.445Z,31.90
2022-08-05T16:17:22.719Z,31.70
2022-08-05T16:20:04.584Z,31.70
2022-08-05T16:22:34.981Z,31.60
2022-08-05T16:25:05.272Z,31.50
2022-08-05T16:27:47.156Z,31.40
2022-08-05T16:30:26.385Z,31.30
2022-08-05T16:32:55.643Z,31.20
2022-08-05T16:35:28.657Z,31.10
2022-08-05T16:38:16.226Z,31.10
2022-08-05T16:40:55.720Z,30.80
2022-08-05T16:43:33.586Z,30.80
2022-08-05T16:46:13.057Z,30.70
2022-08-05T16:48:50.616Z,30.60
2022-08-05T16:51:17.711Z,30.50
2022-08-05T16:54:05.366Z,30.30
2022-08-05T16:56:36.276Z,30.20
2022-08-05T16:59:08.047Z,29.90
2022-08-05T17:01:52.800Z,30.00
2022-08-05T17:04:26.418Z,29.90
2022-08-05T17:07:03.257Z,29.80
2022-08-05T17:09:49.967Z,29.70
2022-08-05T17:12:51.782Z,29.70
2022-08-05T17:15:19.244Z,29.60
2022-08-05T17:17:52.664Z,29.60
2022-08-05T17:20:22.573Z,29.60
2022-08-05T17:22:55.607Z,29.50
2022-08-05T17:25:34.027Z,29.50
2022-08-05T17:28:07.754Z,29.40
2022-08-05T17:30:42.584Z,29.30
2022-08-05T17:33:19.996Z,29.30
2022-08-05T17:36:08.368Z,28.90
2022-08-05T17:38:34.322Z,29.00
2022-08-05T17:41:01.991Z,29.10
2022-08-05T17:43:50.342Z,28.70
2022-08-05T17:46:16.194Z,28.60
2022-08-05T17:48:47.769Z,28.40
2022-08-05T17:51:21.463Z,28.30
2022-08-05T17:53:54.461Z,28.20
2022-08-05T17:56:22.703Z,27.90
2022-08-05T17:58:50.090Z,27.90
2022-08-05T18:01:19.043Z,27.80
2022-08-05T18:03:58.865Z,27.70
2022-08-05T18:06:31.939Z,27.50
2022-08-05T18:08:59.733Z,27.40
2022-08-05T18:11:33.386Z,27.20
2022-08-05T18:14:07.578Z,27.10
2022-08-05T18:16:51.306Z,26.70
2022-08-05T18:19:22.755Z,27.00
2022-08-05T18:22:09.086Z,26.60
2022-08-05T18:24:39.668Z,26.50
2022-08-05T18:27:12.618Z,26.40
2022-08-05T18:29:52.001Z,26.20
2022-08-05T18:35:13.440Z,26.00
2022-08-05T18:37:40.670Z,25.90
2022-08-05T18:40:34.071Z,25.80
2022-08-05T18:43:02.752Z,25.60
2022-08-05T18:45:41.824Z,25.60
2022-08-05T18:48:11.425Z,25.60
2022-08-05T18:50:57.442Z,25.40
2022-08-05T18:53:50.023Z,25.30
2022-08-05T18:56:17.636Z,24.90
2022-08-05T18:58:51.030Z,25.10
2022-08-05T19:01:33.351Z,25.10
2022-08-05T19:04:12.250Z,25.00
2022-08-05T19:06:44.650Z,24.90
2022-08-05T19:09:12.681Z,24.70
2022-08-05T19:12:00.768Z,24.70
2022-08-05T19:14:44.871Z,24.60
2022-08-05T19:17:14.847Z,24.50
2022-08-05T19:19:46.945Z,24.50
2022-08-05T19:22:17.226Z,24.40
2022-08-05T19:24:54.309Z,24.50
2022-08-05T19:27:30.194Z,24.20
2022-08-05T19:29:58.359Z,24.30
2022-08-05T19:32:26.268Z,24.20
2022-08-05T19:34:55.873Z,24.20
2022-08-05T19:37:35.324Z,24.10
2022-08-05T19:40:12.585Z,24.10
2022-08-05T19:42:42.395Z,24.10
2022-08-05T19:45:33.145Z,24.00
2022-08-05T19:48:05.386Z,24.00
2022-08-05T19:50:32.925Z,23.90
2022-08-05T19:53:09.160Z,23.90
2022-08-05T19:56:15.271Z,23.90
2022-08-05T19:58:29.248Z,23.90
2022-08-05T20:00:57.849Z,23.90
2022-08-05T20:03:26.100Z,23.80
2022-08-05T20:05:56.629Z,23.80
2022-08-05T20:08:24.889Z,23.80
2022-08-05T20:10:53.053Z,23.70
2022-08-05T20:13:29.872Z,23.70
2022-08-05T20:15:57.583Z,23.70
2022-08-05T20:18:33.552Z,23.60
2022-08-05T20:21:05.309Z,23.50
2022-08-05T20:23:39.270Z,23.50
2022-08-05T20:26:17.261Z,23.50
2022-08-05T20:28:48.453Z,23.50
2022-08-05T20:31:17.651Z,23.20
2022-08-05T20:33:49.416Z,23.40
2022-08-05T20:36:17.981Z,23.30
2022-08-05T20:38:54.273Z,23.30
2022-08-05T20:41:27.018Z,23.30
2022-08-05T20:44:19.403Z,23.30
2022-08-05T20:47:03.146Z,23.20
2022-08-05T20:49:38.082Z,23.20
2022-08-05T20:52:08.796Z,23.20
2022-08-05T20:54:59.028Z,23.10
2022-08-05T20:57:43.530Z,23.10
2022-08-05T21:00:40.325Z,23.10
2022-08-05T21:03:08.149Z,23.00
2022-08-05T21:05:53.843Z,23.00
2022-08-05T21:08:41.919Z,23.00
2022-08-05T21:11:12.826Z,23.00
2022-08-05T21:13:47.882Z,22.90
2022-08-05T21:16:29.765Z,22.90
2022-08-05T21:19:01.576Z,22.90
2022-08-05T21:21:43.870Z,22.90
2022-08-05T21:24:19.319Z,22.90
2022-08-05T21:26:53.345Z,22.80
2022-08-05T21:29:32.015Z,22.80
2022-08-05T21:32:01.940Z,22.80
2022-08-05T21:34:31.641Z,22.70
2022-08-05T21:37:00.170Z,22.70
2022-08-05T21:39:28.088Z,22.70
2022-08-05T21:42:01.711Z,22.70
2022-08-05T21:44:31.042Z,22.60
2022-08-05T21:46:59.634Z,22.60
2022-08-05T21:49:48.279Z,22.50
2022-08-05T21:52:21.760Z,22.50
2022-08-05T21:54:56.945Z,22.40
2022-08-05T21:57:32.532Z,22.40
2022-08-05T22:00:05.823Z,22.30
2022-08-05T22:02:42.596Z,22.30
2022-08-05T22:05:12.014Z,22.20
2022-08-05T22:07:59.589Z,22.30
2022-08-05T22:10:27.646Z,22.00
2022-08-05T22:14:05.229Z,22.00
2022-08-05T22:16:00.814Z,22.00
2022-08-05T22:18:34.035Z,22.00
2022-08-05T22:21:04.250Z,21.90
2022-08-05T22:24:09.031Z,21.90
2022-08-05T22:26:59.912Z,21.90
2022-08-05T22:29:30.728Z,21.80
2022-08-05T22:32:03.156Z,21.80
2022-08-05T22:34:32.671Z,21.70
2022-08-05T22:37:00.583Z,21.70
2022-08-05T22:39:33.691Z,21.60
2022-08-05T22:42:12.287Z,21.60
2022-08-05T22:44:42.700Z,21.60
2022-08-05T22:47:29.725Z,21.50
2022-08-05T22:50:19.055Z,21.30
2022-08-05T22:52:46.574Z,21.50
2022-08-05T22:55:19.366Z,21.40
2022-08-05T22:57:51.498Z,21.40
2022-08-05T23:00:21.658Z,21.40
2022-08-05T23:02:50.716Z,21.30
2022-08-05T23:05:19.068Z,21.30
2022-08-05T23:07:50.648Z,21.30
2022-08-05T23:10:20.762Z,21.30
2022-08-05T23:12:54.479Z,21.20
2022-08-05T23:15:29.553Z,21.20
2022-08-05T23:18:03.258Z,21.20
2022-08-05T23:20:32.943Z,21.10
2022-08-05T23:23:05.764Z,21.00
2022-08-05T23:25:53.250Z,21.10
2022-08-05T23:28:27.614Z,21.10
2022-08-05T23:31:16.657Z,21.00
2022-08-05T23:34:02.986Z,21.10
2022-08-05T23:36:39.766Z,20.90
2022-08-05T23:39:17.244Z,20.90
2022-08-05T23:41:51.866Z,20.80
2022-08-05T23:44:19.820Z,20.80
2022-08-05T23:46:52.357Z,20.70
2022-08-05T23:49:23.877Z,20.70
2022-08-05T23:52:19.646Z,20.60
2022-08-05T23:54:49.439Z,20.60
2022-08-05T23:57:16.673Z,20.60
